sensor_id;sensor_type;location;lat;lon;timestamp;temperature;humidity
8269;DHT22;4174;48.304;16.364;2023-04-22T00:01:11;10.60;99.90
8269;DHT22;4174;48.304;16.364;2023-04-22T00:07:15;10.50;99.90
8269;DHT22;4174;48.304;16.364;2023-04-22T00:13:18;10.50;99.90
8269;DHT22;4174;48.304;16.364;2023-04-22T00:19:22;10.40;99.90
8269;DHT22;4174;48.304;16.364;2023-04-22T00:25:25;10.30;99.90
8269;DHT22;4174;48.304;16.364;2023-04-22T00:31:29;10.30;99.90
8269;DHT22;4174;48.304;16.364;2023-04-22T00:37:33;10.30;99.90
8269;DHT22;4174;48.304;16.364;2023-04-22T00:43:36;10.30;99.90
8269;DHT22;4174;48.304;16.364;2023-04-22T00:49:40;10.00;99.90
8269;DHT22;4174;48.304;16.364;2023-04-22T00:55:45;10.00;99.90
8269;DHT22;4174;48.304;16.364;2023-04-22T01:01:48;10.00;99.90
8269;DHT22;4174;48.304;16.364;2023-04-22T01:07:51;9.90;99.90
8269;DHT22;4174;48.304;16.364;2023-04-22T01:13:55;9.90;99.90
8269;DHT22;4174;48.304;16.364;2023-04-22T01:20:00;9.80;99.90
8269;DHT22;4174;48.304;16.364;2023-04-22T01:26:04;9.70;99.90
8269;DHT22;4174;48.304;16.364;2023-04-22T01:32:07;9.70;99.90
8269;DHT22;4174;48.304;16.364;2023-04-22T01:38:11;9.70;99.90
8269;DHT22;4174;48.304;16.364;2023-04-22T01:44:14;9.60;99.90
8269;DHT22;4174;48.304;16.364;2023-04-22T01:50:19;9.40;99.90
8269;DHT22;4174;48.304;16.364;2023-04-22T01:56:22;9.40;99.90
8269;DHT22;4174;48.304;16.364;2023-04-22T02:02:26;9.40;99.90
8269;DHT22;4174;48.304;16.364;2023-04-22T02:08:29;9.30;99.90
8269;DHT22;4174;48.304;16.364;2023-04-22T02:14:33;9.30;99.90
8269;DHT22;4174;48.304;16.364;2023-04-22T02:20:36;9.20;99.90
8269;DHT22;4174;48.304;16.364;2023-04-22T02:26:41;9.10;99.90
8269;DHT22;4174;48.304;16.364;2023-04-22T02:32:45;9.00;99.90
8269;DHT22;4174;48.304;16.364;2023-04-22T02:38:48;8.90;99.90
8269;DHT22;4174;48.304;16.364;2023-04-22T02:44:52;8.90;99.90
8269;DHT22;4174;48.304;16.364;2023-04-22T02:50:55;8.80;99.90
8269;DHT22;4174;48.304;16.364;2023-04-22T02:56:59;8.80;99.90
8269;DHT22;4174;48.304;16.364;2023-04-22T03:03:03;8.70;99.90
8269;DHT22;4174;48.304;16.364;2023-04-22T03:09:06;8.70;99.90
8269;DHT22;4174;48.304;16.364;2023-04-22T03:15:10;8.60;99.90
8269;DHT22;4174;48.304;16.364;2023-04-22T03:21:14;8.50;99.90
8269;DHT22;4174;48.304;16.364;2023-04-22T03:27:18;8.50;99.90
8269;DHT22;4174;48.304;16.364;2023-04-22T03:33:22;8.50;99.90
8269;DHT22;4174;48.304;16.364;2023-04-22T03:39:25;8.40;99.90
8269;DHT22;4174;48.304;16.364;2023-04-22T03:45:29;8.30;99.90
8269;DHT22;4174;48.304;16.364;2023-04-22T03:51:33;8.30;99.90
8269;DHT22;4174;48.304;16.364;2023-04-22T03:57:36;8.10;99.90
8269;DHT22;4174;48.304;16.364;2023-04-22T04:03:40;8.10;99.90
8269;DHT22;4174;48.304;16.364;2023-04-22T04:09:44;8.30;99.90
8269;DHT22;4174;48.304;16.364;2023-04-22T04:15:48;8.30;99.90
8269;DHT22;4174;48.304;16.364;2023-04-22T04:21:51;8.30;99.90
8269;DHT22;4174;48.304;16.364;2023-04-22T04:27:55;8.40;99.90
8269;DHT22;4174;48.304;16.364;2023-04-22T04:33:59;8.70;99.90
8269;DHT22;4174;48.304;16.364;2023-04-22T04:40:05;8.90;99.90
8269;DHT22;4174;48.304;16.364;2023-04-22T04:46:10;9.10;99.90
8269;DHT22;4174;48.304;16.364;2023-04-22T04:52:13;9.30;99.90
8269;DHT22;4174;48.304;16.364;2023-04-22T04:58:17;9.60;99.90
8269;DHT22;4174;48.304;16.364;2023-04-22T05:04:20;9.80;99.90
8269;DHT22;4174;48.304;16.364;2023-04-22T05:10:24;10.10;99.90
8269;DHT22;4174;48.304;16.364;2023-04-22T05:16:27;10.80;99.90
8269;DHT22;4174;48.304;16.364;2023-04-22T05:22:33;11.30;99.90
8269;DHT22;4174;48.304;16.364;2023-04-22T05:28:35;11.30;99.90
8269;DHT22;4174;48.304;16.364;2023-04-22T05:34:39;11.40;99.90
8269;DHT22;4174;48.304;16.364;2023-04-22T05:40:43;11.50;99.90
8269;DHT22;4174;48.304;16.364;2023-04-22T05:46:48;11.50;99.90
8269;DHT22;4174;48.304;16.364;2023-04-22T05:52:51;12.00;99.90
8269;DHT22;4174;48.304;16.364;2023-04-22T05:58:55;12.20;99.90
8269;DHT22;4174;48.304;16.364;2023-04-22T06:04:59;12.80;99.90
8269;DHT22;4174;48.304;16.364;2023-04-22T06:11:03;13.50;99.90
8269;DHT22;4174;48.304;16.364;2023-04-22T06:17:08;14.20;99.90
8269;DHT22;4174;48.304;16.364;2023-04-22T06:23:12;15.30;99.90
8269;DHT22;4174;48.304;16.364;2023-04-22T06:29:15;16.60;99.90
8269;DHT22;4174;48.304;16.364;2023-04-22T06:35:19;17.80;99.90
8269;DHT22;4174;48.304;16.364;2023-04-22T06:41:22;19.30;99.90
8269;DHT22;4174;48.304;16.364;2023-04-22T06:47:25;19.30;97.90
8269;DHT22;4174;48.304;16.364;2023-04-22T06:53:29;19.60;93.90
8269;DHT22;4174;48.304;16.364;2023-04-22T06:59:32;20.20;91.00
8269;DHT22;4174;48.304;16.364;2023-04-22T07:05:36;20.60;90.60
8269;DHT22;4174;48.304;16.364;2023-04-22T07:11:39;19.80;90.40
8269;DHT22;4174;48.304;16.364;2023-04-22T07:17:43;19.70;92.70
8269;DHT22;4174;48.304;16.364;2023-04-22T07:23:46;19.20;89.80
8269;DHT22;4174;48.304;16.364;2023-04-22T07:29:50;18.70;92.90
8269;DHT22;4174;48.304;16.364;2023-04-22T07:35:54;18.90;93.60
8269;DHT22;4174;48.304;16.364;2023-04-22T07:41:57;19.50;91.40
8269;DHT22;4174;48.304;16.364;2023-04-22T07:48:01;20.10;88.70
8269;DHT22;4174;48.304;16.364;2023-04-22T07:54:06;20.60;88.90
8269;DHT22;4174;48.304;16.364;2023-04-22T08:00:10;21.70;85.20
8269;DHT22;4174;48.304;16.364;2023-04-22T08:06:15;21.30;85.40
8269;DHT22;4174;48.304;16.364;2023-04-22T08:12:18;21.50;82.50
8269;DHT22;4174;48.304;16.364;2023-04-22T08:18:22;21.10;83.00
8269;DHT22;4174;48.304;16.364;2023-04-22T08:24:26;21.80;83.40
8269;DHT22;4174;48.304;16.364;2023-04-22T08:30:29;21.60;88.10
8269;DHT22;4174;48.304;16.364;2023-04-22T08:36:34;21.60;85.70
8269;DHT22;4174;48.304;16.364;2023-04-22T08:42:37;21.60;85.60
8269;DHT22;4174;48.304;16.364;2023-04-22T08:48:42;22.40;82.10
8269;DHT22;4174;48.304;16.364;2023-04-22T08:54:47;22.80;81.70
8269;DHT22;4174;48.304;16.364;2023-04-22T09:00:50;23.70;77.40
8269;DHT22;4174;48.304;16.364;2023-04-22T09:06:55;23.30;71.30
8269;DHT22;4174;48.304;16.364;2023-04-22T09:12:58;24.30;69.70
8269;DHT22;4174;48.304;16.364;2023-04-22T09:19:01;24.70;70.60
8269;DHT22;4174;48.304;16.364;2023-04-22T09:31:17;23.40;65.80
8269;DHT22;4174;48.304;16.364;2023-04-22T09:37:23;24.40;65.30
8269;DHT22;4174;48.304;16.364;2023-04-22T09:43:26;23.60;63.50
8269;DHT22;4174;48.304;16.364;2023-04-22T09:49:30;23.80;62.70
8269;DHT22;4174;48.304;16.364;2023-04-22T09:55:35;23.80;62.70
8269;DHT22;4174;48.304;16.364;2023-04-22T10:01:38;22.70;59.70
8269;DHT22;4174;48.304;16.364;2023-04-22T10:07:41;22.90;60.30
8269;DHT22;4174;48.304;16.364;2023-04-22T10:13:44;23.60;61.00
8269;DHT22;4174;48.304;16.364;2023-04-22T10:19:47;24.60;58.70
8269;DHT22;4174;48.304;16.364;2023-04-22T10:25:53;25.10;56.70
8269;DHT22;4174;48.304;16.364;2023-04-22T10:32:02;23.80;57.40
8269;DHT22;4174;48.304;16.364;2023-04-22T10:38:13;23.40;60.10
8269;DHT22;4174;48.304;16.364;2023-04-22T10:44:16;23.70;59.60
8269;DHT22;4174;48.304;16.364;2023-04-22T10:50:23;23.60;59.70
8269;DHT22;4174;48.304;16.364;2023-04-22T10:56:29;24.20;56.10
8269;DHT22;4174;48.304;16.364;2023-04-22T11:02:32;23.90;59.50
8269;DHT22;4174;48.304;16.364;2023-04-22T11:08:36;23.80;59.00
8269;DHT22;4174;48.304;16.364;2023-04-22T11:14:40;23.80;59.00
8269;DHT22;4174;48.304;16.364;2023-04-22T11:20:43;23.30;58.80
8269;DHT22;4174;48.304;16.364;2023-04-22T11:26:46;23.90;59.30
8269;DHT22;4174;48.304;16.364;2023-04-22T11:32:52;23.50;59.40
8269;DHT22;4174;48.304;16.364;2023-04-22T11:38:56;23.90;59.60
8269;DHT22;4174;48.304;16.364;2023-04-22T11:44:59;23.90;59.60
8269;DHT22;4174;48.304;16.364;2023-04-22T11:51:08;25.00;57.20
8269;DHT22;4174;48.304;16.364;2023-04-22T11:57:10;24.50;55.70
8269;DHT22;4174;48.304;16.364;2023-04-22T12:03:16;24.20;56.90
8269;DHT22;4174;48.304;16.364;2023-04-22T12:09:22;22.70;57.60
8269;DHT22;4174;48.304;16.364;2023-04-22T12:15:22;23.30;60.00
8269;DHT22;4174;48.304;16.364;2023-04-22T12:21:25;22.70;57.40
8269;DHT22;4174;48.304;16.364;2023-04-22T12:27:29;22.80;60.50
8269;DHT22;4174;48.304;16.364;2023-04-22T12:33:32;23.30;58.30
8269;DHT22;4174;48.304;16.364;2023-04-22T12:39:35;23.20;60.00
8269;DHT22;4174;48.304;16.364;2023-04-22T12:45:39;23.10;57.30
8269;DHT22;4174;48.304;16.364;2023-04-22T12:51:42;22.80;57.20
8269;DHT22;4174;48.304;16.364;2023-04-22T12:57:46;22.40;58.40
8269;DHT22;4174;48.304;16.364;2023-04-22T13:03:48;22.90;56.50
8269;DHT22;4174;48.304;16.364;2023-04-22T13:09:51;22.80;58.00
8269;DHT22;4174;48.304;16.364;2023-04-22T13:15:55;23.00;60.40
8269;DHT22;4174;48.304;16.364;2023-04-22T13:22:00;23.10;55.30
8269;DHT22;4174;48.304;16.364;2023-04-22T13:28:03;23.10;55.20
8269;DHT22;4174;48.304;16.364;2023-04-22T13:34:06;22.80;55.90
8269;DHT22;4174;48.304;16.364;2023-04-22T13:40:11;22.40;56.10
8269;DHT22;4174;48.304;16.364;2023-04-22T13:46:15;23.20;59.00
8269;DHT22;4174;48.304;16.364;2023-04-22T13:52:19;22.40;55.60
8269;DHT22;4174;48.304;16.364;2023-04-22T13:58:23;22.50;56.40
8269;DHT22;4174;48.304;16.364;2023-04-22T14:04:27;23.20;57.20
8269;DHT22;4174;48.304;16.364;2023-04-22T14:10:30;22.30;57.60
8269;DHT22;4174;48.304;16.364;2023-04-22T14:16:34;22.10;57.80
8269;DHT22;4174;48.304;16.364;2023-04-22T14:22:38;22.30;58.20
8269;DHT22;4174;48.304;16.364;2023-04-22T14:28:42;21.90;59.20
8269;DHT22;4174;48.304;16.364;2023-04-22T14:34:46;21.90;55.70
8269;DHT22;4174;48.304;16.364;2023-04-22T14:40:49;22.10;58.10
8269;DHT22;4174;48.304;16.364;2023-04-22T14:46:52;22.20;57.50
8269;DHT22;4174;48.304;16.364;2023-04-22T14:52:56;22.00;56.70
8269;DHT22;4174;48.304;16.364;2023-04-22T14:59:00;22.20;57.10
8269;DHT22;4174;48.304;16.364;2023-04-22T15:05:04;22.10;57.30
8269;DHT22;4174;48.304;16.364;2023-04-22T15:11:10;21.50;58.50
8269;DHT22;4174;48.304;16.364;2023-04-22T15:17:15;21.70;58.70
8269;DHT22;4174;48.304;16.364;2023-04-22T15:23:18;21.70;58.80
8269;DHT22;4174;48.304;16.364;2023-04-22T15:29:22;21.40;59.20
8269;DHT22;4174;48.304;16.364;2023-04-22T15:35:26;21.40;58.80
8269;DHT22;4174;48.304;16.364;2023-04-22T15:41:30;21.30;58.10
8269;DHT22;4174;48.304;16.364;2023-04-22T15:47:32;21.30;58.60
8269;DHT22;4174;48.304;16.364;2023-04-22T15:53:36;21.20;59.70
8269;DHT22;4174;48.304;16.364;2023-04-22T15:59:40;21.00;59.30
8269;DHT22;4174;48.304;16.364;2023-04-22T16:05:44;21.10;58.90
8269;DHT22;4174;48.304;16.364;2023-04-22T16:11:48;21.20;60.00
8269;DHT22;4174;48.304;16.364;2023-04-22T16:17:52;21.20;60.00
8269;DHT22;4174;48.304;16.364;2023-04-22T16:23:56;20.90;59.60
8269;DHT22;4174;48.304;16.364;2023-04-22T16:30:00;20.90;59.60
8269;DHT22;4174;48.304;16.364;2023-04-22T16:36:06;20.60;58.60
8269;DHT22;4174;48.304;16.364;2023-04-22T16:42:10;20.60;58.60
8269;DHT22;4174;48.304;16.364;2023-04-22T16:48:13;20.70;59.60
8269;DHT22;4174;48.304;16.364;2023-04-22T16:54:17;20.60;59.50
8269;DHT22;4174;48.304;16.364;2023-04-22T17:00:20;20.40;60.00
8269;DHT22;4174;48.304;16.364;2023-04-22T17:06:24;20.30;59.80
8269;DHT22;4174;48.304;16.364;2023-04-22T17:12:28;20.30;60.40
8269;DHT22;4174;48.304;16.364;2023-04-22T17:18:32;20.10;61.20
8269;DHT22;4174;48.304;16.364;2023-04-22T17:24:37;20.10;60.30
8269;DHT22;4174;48.304;16.364;2023-04-22T17:30:40;20.10;60.10
8269;DHT22;4174;48.304;16.364;2023-04-22T17:36:44;20.20;63.00
8269;DHT22;4174;48.304;16.364;2023-04-22T17:42:48;20.10;61.20
8269;DHT22;4174;48.304;16.364;2023-04-22T17:48:53;19.90;61.70
8269;DHT22;4174;48.304;16.364;2023-04-22T17:54:57;19.80;64.80
8269;DHT22;4174;48.304;16.364;2023-04-22T18:01:01;19.60;65.00
8269;DHT22;4174;48.304;16.364;2023-04-22T18:07:05;19.30;64.40
8269;DHT22;4174;48.304;16.364;2023-04-22T18:13:08;19.30;67.10
8269;DHT22;4174;48.304;16.364;2023-04-22T18:19:14;18.60;69.40
8269;DHT22;4174;48.304;16.364;2023-04-22T18:25:18;18.60;69.40
8269;DHT22;4174;48.304;16.364;2023-04-22T18:31:21;18.30;71.80
8269;DHT22;4174;48.304;16.364;2023-04-22T18:37:25;18.20;73.60
8269;DHT22;4174;48.304;16.364;2023-04-22T18:43:28;18.00;75.80
8269;DHT22;4174;48.304;16.364;2023-04-22T18:49:32;17.80;78.00
8269;DHT22;4174;48.304;16.364;2023-04-22T18:55:35;17.60;80.60
8269;DHT22;4174;48.304;16.364;2023-04-22T19:01:40;17.30;86.30
8269;DHT22;4174;48.304;16.364;2023-04-22T19:07:44;17.30;86.30
8269;DHT22;4174;48.304;16.364;2023-04-22T19:13:48;17.10;88.00
8269;DHT22;4174;48.304;16.364;2023-04-22T19:19:52;17.00;89.90
8269;DHT22;4174;48.304;16.364;2023-04-22T19:25:55;16.80;90.40
8269;DHT22;4174;48.304;16.364;2023-04-22T19:31:59;16.90;90.90
8269;DHT22;4174;48.304;16.364;2023-04-22T19:38:02;16.70;91.50
8269;DHT22;4174;48.304;16.364;2023-04-22T19:44:05;16.90;92.10
8269;DHT22;4174;48.304;16.364;2023-04-22T19:50:10;16.50;92.80
8269;DHT22;4174;48.304;16.364;2023-04-22T19:56:15;16.30;93.60
8269;DHT22;4174;48.304;16.364;2023-04-22T20:02:19;16.30;94.40
8269;DHT22;4174;48.304;16.364;2023-04-22T20:08:25;16.30;95.90
8269;DHT22;4174;48.304;16.364;2023-04-22T20:14:27;16.00;95.80
8269;DHT22;4174;48.304;16.364;2023-04-22T20:20:31;15.90;97.40
8269;DHT22;4174;48.304;16.364;2023-04-22T20:26:34;15.80;96.90
8269;DHT22;4174;48.304;16.364;2023-04-22T20:32:37;15.80;97.20
8269;DHT22;4174;48.304;16.364;2023-04-22T20:38:41;15.90;97.00
8269;DHT22;4174;48.304;16.364;2023-04-22T20:44:43;15.90;98.10
8269;DHT22;4174;48.304;16.364;2023-04-22T20:50:47;15.80;98.20
8269;DHT22;4174;48.304;16.364;2023-04-22T20:56:51;15.50;98.90
8269;DHT22;4174;48.304;16.364;2023-04-22T21:02:53;15.40;99.50
8269;DHT22;4174;48.304;16.364;2023-04-22T21:08:56;15.40;99.60
8269;DHT22;4174;48.304;16.364;2023-04-22T21:15:00;15.30;99.60
8269;DHT22;4174;48.304;16.364;2023-04-22T21:21:04;15.30;99.90
8269;DHT22;4174;48.304;16.364;2023-04-22T21:27:08;15.20;99.90
8269;DHT22;4174;48.304;16.364;2023-04-22T21:33:13;15.10;99.90
8269;DHT22;4174;48.304;16.364;2023-04-22T21:39:16;15.00;99.90
8269;DHT22;4174;48.304;16.364;2023-04-22T21:45:20;15.20;99.90
8269;DHT22;4174;48.304;16.364;2023-04-22T21:51:24;15.20;99.90
8269;DHT22;4174;48.304;16.364;2023-04-22T21:57:27;15.10;99.90
8269;DHT22;4174;48.304;16.364;2023-04-22T22:03:30;14.80;99.90
8269;DHT22;4174;48.304;16.364;2023-04-22T22:09:34;14.80;99.90
8269;DHT22;4174;48.304;16.364;2023-04-22T22:15:37;14.70;99.90
8269;DHT22;4174;48.304;16.364;2023-04-22T22:21:41;14.60;99.90
8269;DHT22;4174;48.304;16.364;2023-04-22T22:27:45;14.70;99.90
8269;DHT22;4174;48.304;16.364;2023-04-22T22:33:49;14.70;99.90
8269;DHT22;4174;48.304;16.364;2023-04-22T22:39:53;14.70;99.90
8269;DHT22;4174;48.304;16.364;2023-04-22T22:45:56;14.70;99.90
8269;DHT22;4174;48.304;16.364;2023-04-22T22:52:00;14.60;99.90
8269;DHT22;4174;48.304;16.364;2023-04-22T22:58:03;14.50;99.90
8269;DHT22;4174;48.304;16.364;2023-04-22T23:04:08;14.40;99.90
8269;DHT22;4174;48.304;16.364;2023-04-22T23:10:11;14.40;99.90
8269;DHT22;4174;48.304;16.364;2023-04-22T23:16:16;14.20;99.90
8269;DHT22;4174;48.304;16.364;2023-04-22T23:22:20;14.20;99.90
8269;DHT22;4174;48.304;16.364;2023-04-22T23:28:25;14.20;99.90
8269;DHT22;4174;48.304;16.364;2023-04-22T23:34:29;14.20;99.90
8269;DHT22;4174;48.304;16.364;2023-04-22T23:40:32;14.00;99.90
8269;DHT22;4174;48.304;16.364;2023-04-22T23:46:35;13.90;99.90
8269;DHT22;4174;48.304;16.364;2023-04-22T23:52:38;14.00;99.90
8269;DHT22;4174;48.304;16.364;2023-04-22T23:58:43;13.90;99.90
